Time;durP1;ratioP1;P1;durP2;ratioP2;P2;SDS_P1;SDS_P2;PMS_P1;PMS_P2;Temp;Humidity;BMP_temperature;BMP_pressure;BME280_temperature;BME280_humidity;BME280_pressure;Samples;Min_cycle;Max_cycle;Signal;HPM_P1;HPM_P2
2021/12/19 00:01:05;;;;;;;66.70;31.00;;;;;;;2.67;80.88;99298.11;103155;1314;111547;-84
2021/12/19 00:09:21;;;;;;;64.40;32.20;;;;;;;2.70;81.01;99282.24;103244;1313;97889;-81
2021/12/19 00:11:49;;;;;;;69.50;32.00;;;;;;;2.71;80.86;99284.84;103072;1319;99021;-81
2021/12/19 00:14:18;;;;;;;57.60;28.60;;;;;;;2.72;81.11;99288.83;103208;1317;111481;-82
2021/12/19 00:16:48;;;;;;;68.30;33.80;;;;;;;2.73;81.06;99283.36;103200;1316;97963;-83
2021/12/19 00:19:18;;;;;;;65.00;30.90;;;;;;;2.72;81.06;99279.38;103125;1317;107928;-86
2021/12/19 00:21:49;;;;;;;55.90;26.60;;;;;;;2.73;81.42;99272.33;103250;1316;97911;-81
2021/12/19 00:24:19;;;;;;;56.30;27.60;;;;;;;2.75;81.38;99264.37;103304;1315;95342;-81
2021/12/19 00:26:52;;;;;;;65.10;32.00;;;;;;;2.77;81.39;99254.68;103270;1314;111528;-82
2021/12/19 00:29:23;;;;;;;63.90;32.00;;;;;;;2.77;81.38;99256.77;103262;1316;97920;-81
2021/12/19 00:31:51;;;;;;;59.70;29.30;;;;;;;2.78;81.46;99259.00;103252;1316;107713;-80
2021/12/19 00:34:18;;;;;;;56.40;28.60;;;;;;;2.80;81.38;99253.52;103155;1316;98002;-80
2021/12/19 00:36:49;;;;;;;59.60;29.00;;;;;;;2.80;81.45;99251.05;103345;1316;97921;-81
2021/12/19 00:39:17;;;;;;;62.10;30.90;;;;;;;2.80;81.13;99248.09;103288;1314;109684;-79
2021/12/19 00:41:45;;;;;;;52.60;25.70;;;;;;;2.82;81.49;99237.69;103176;1315;97913;-79
2021/12/19 00:44:14;;;;;;;60.60;28.30;;;;;;;2.83;81.27;99240.96;103306;1314;107869;-80
2021/12/19 00:46:51;;;;;;;64.90;31.20;;;;;;;2.84;81.39;99240.94;103259;1316;98060;-80
2021/12/19 00:49:24;;;;;;;52.60;26.80;;;;;;;2.84;81.42;99232.89;103216;1317;95185;-80
2021/12/19 00:51:52;;;;;;;54.10;27.30;;;;;;;2.86;81.49;99225.80;103232;1313;111437;-81
2021/12/19 00:54:20;;;;;;;55.20;27.80;;;;;;;2.86;81.54;99222.80;103494;1316;97165;-80
2021/12/19 00:56:48;;;;;;;50.40;25.20;;;;;;;2.88;81.61;99225.34;103345;1314;107789;-80
2021/12/19 00:59:21;;;;;;;55.00;27.20;;;;;;;2.87;81.42;99220.85;103313;1320;97985;-78
2021/12/19 01:01:49;;;;;;;52.80;25.80;;;;;;;2.88;81.43;99217.48;103287;1314;97892;-79
2021/12/19 01:04:20;;;;;;;52.30;27.50;;;;;;;2.89;81.25;99207.81;103255;1316;111207;-79
2021/12/19 01:06:51;;;;;;;59.00;28.70;;;;;;;2.91;81.63;99206.84;103105;1316;98943;-80
2021/12/19 01:09:19;;;;;;;50.80;26.20;;;;;;;2.93;81.77;99209.59;103276;1314;107448;-79
2021/12/19 01:11:49;;;;;;;52.70;26.60;;;;;;;2.94;81.41;99204.28;103179;1313;97869;-79
2021/12/19 01:14:19;;;;;;;51.80;26.50;;;;;;;2.95;81.67;99194.41;103179;1313;98588;-79
2021/12/19 01:16:46;;;;;;;50.80;26.20;;;;;;;2.96;81.49;99185.64;103276;1314;111512;-79
2021/12/19 01:19:14;;;;;;;49.30;25.40;;;;;;;2.97;81.77;99172.81;103239;1313;97975;-81
2021/12/19 01:21:42;;;;;;;47.20;23.60;;;;;;;2.99;81.42;99171.70;104700;1316;107809;-80
2021/12/19 01:24:10;;;;;;;45.50;22.10;;;;;;;3.01;81.77;99163.73;103266;1315;98034;-80
2021/12/19 01:26:39;;;;;;;41.80;22.30;;;;;;;3.02;81.78;99162.11;103109;1316;98587;-83
2021/12/19 01:29:13;;;;;;;44.90;23.70;;;;;;;3.03;81.77;99154.73;103201;1316;111694;-82
2021/12/19 01:31:43;;;;;;;48.80;23.30;;;;;;;3.04;81.57;99148.88;103201;1316;97925;-82
2021/12/19 01:34:13;;;;;;;45.60;22.70;;;;;;;3.06;81.96;99147.23;103118;1316;107810;-81
2021/12/19 01:36:43;;;;;;;47.30;22.10;;;;;;;3.07;81.69;99146.49;104813;1313;96049;-81
2021/12/19 01:39:14;;;;;;;50.40;22.70;;;;;;;3.09;81.63;99139.22;103839;1319;97998;-79
2021/12/19 01:41:52;;;;;;;51.50;22.90;;;;;;;3.12;81.96;99140.82;103077;1316;111411;-81
2021/12/19 01:44:22;;;;;;;47.60;24.10;;;;;;;3.16;81.94;99136.86;103201;1315;97757;-81
2021/12/19 01:46:50;;;;;;;41.70;21.20;;;;;;;3.18;81.89;99127.66;103503;1316;106922;-83
2021/12/19 01:49:21;;;;;;;38.80;19.90;;;;;;;3.19;81.68;99121.83;103330;1316;97748;-78
2021/12/19 01:51:51;;;;;;;41.30;21.20;;;;;;;3.20;81.90;99110.56;103148;1319;97901;-78
2021/12/19 01:54:19;;;;;;;40.90;19.60;;;;;;;3.21;81.66;99113.51;103182;1317;111072;-81
2021/12/19 01:56:47;;;;;;;42.20;22.80;;;;;;;3.23;81.75;99115.00;103167;1320;96653;-78
2021/12/19 01:59:18;;;;;;;43.00;21.20;;;;;;;3.24;81.86;99107.42;103235;1316;106802;-78
2021/12/19 02:01:51;;;;;;;39.90;20.30;;;;;;;3.24;82.02;99102.13;103231;1316;97965;-79
2021/12/19 02:04:21;;;;;;;40.90;19.70;;;;;;;3.25;81.91;99098.42;103164;1316;95342;-78
2021/12/19 02:06:50;;;;;;;41.30;20.90;;;;;;;3.27;81.96;99096.95;103198;1314;111554;-79
2021/12/19 02:09:18;;;;;;;38.60;19.70;;;;;;;3.28;82.22;99094.61;103281;1314;99174;-78
2021/12/19 02:11:48;;;;;;;40.60;20.80;;;;;;;3.29;81.95;99088.95;103150;1316;107982;-79
2021/12/19 02:14:20;;;;;;;38.20;18.20;;;;;;;3.30;81.92;99095.60;103309;1313;95293;-79
2021/12/19 02:16:47;;;;;;;37.40;19.70;;;;;;;3.32;81.98;99094.29;103296;1314;96544;-79
2021/12/19 02:19:15;;;;;;;36.50;18.90;;;;;;;3.32;82.33;99095.52;103193;1319;111054;-79
2021/12/19 02:21:43;;;;;;;31.80;15.00;;;;;;;3.33;82.21;99096.87;103289;1314;96780;-80
2021/12/19 02:24:11;;;;;;;35.90;17.70;;;;;;;3.34;82.24;99098.56;103171;1319;107863;-78
2021/12/19 02:26:40;;;;;;;37.40;18.60;;;;;;;3.34;82.13;99108.02;103313;1317;98473;-79
2021/12/19 02:29:12;;;;;;;33.50;17.00;;;;;;;3.36;82.36;99106.38;103223;1316;99026;-79
2021/12/19 02:31:42;;;;;;;32.80;16.50;;;;;;;3.38;82.37;99101.73;103183;1317;111600;-82
2021/12/19 02:34:18;;;;;;;34.20;17.70;;;;;;;3.39;82.21;99094.14;103302;1316;95870;-82
2021/12/19 02:36:55;;;;;;;34.30;16.70;;;;;;;3.40;82.15;99089.38;103118;1319;107463;-81
2021/12/19 02:48:14;;;;;;;29.40;13.90;;;;;;;3.38;82.04;99070.73;102392;1320;1086282;-81
2021/12/19 02:50:51;;;;;;;36.80;17.50;;;;;;;3.38;82.31;99064.24;103099;1317;107936;-81
2021/12/19 02:53:36;;;;;;;29.20;14.00;;;;;;;3.38;82.23;99054.23;103079;1316;98027;-80
2021/12/19 02:56:11;;;;;;;32.80;16.30;;;;;;;3.38;82.32;99041.42;103240;1314;97161;-79
2021/12/19 02:58:42;;;;;;;29.80;15.10;;;;;;;3.38;82.24;99032.33;103110;1317;111482;-82
2021/12/19 03:01:17;;;;;;;27.70;13.60;;;;;;;3.38;82.13;99022.88;103125;1320;98832;-80
2021/12/19 03:03:45;;;;;;;31.90;16.20;;;;;;;3.39;82.36;99013.71;103162;1317;107723;-82
2021/12/19 03:06:13;;;;;;;29.90;14.10;;;;;;;3.38;82.40;98999.90;103230;1317;97951;-81
2021/12/19 03:08:45;;;;;;;30.60;15.20;;;;;;;3.38;82.24;98992.53;103326;1316;95196;-83
2021/12/19 03:19:07;;;;;;;25.50;12.70;;;;;;;3.43;82.51;98987.23;103236;1314;97226;-84
2021/12/19 03:21:34;;;;;;;30.70;15.70;;;;;;;3.46;82.40;98985.37;103310;1317;98194;-82
2021/12/19 03:24:05;;;;;;;27.80;13.60;;;;;;;3.47;82.57;98983.39;103316;1320;111304;-84
2021/12/19 03:26:38;;;;;;;28.00;15.60;;;;;;;3.49;82.41;98982.96;103268;1315;95331;-83
2021/12/19 03:29:05;;;;;;;29.60;13.10;;;;;;;3.49;82.24;98983.10;103220;1313;105858;-82
2021/12/19 03:31:33;;;;;;;28.20;14.10;;;;;;;3.51;82.27;98979.15;103254;1314;98027;-83
2021/12/19 03:34:01;;;;;;;25.70;13.10;;;;;;;3.54;82.37;98973.07;103283;1314;97983;-81
2021/12/19 03:36:30;;;;;;;24.20;11.80;;;;;;;3.55;82.52;98969.85;103262;1317;110362;-81
2021/12/19 03:39:04;;;;;;;21.40;10.40;;;;;;;3.57;82.36;98965.05;103292;1313;97963;-81
2021/12/19 03:41:35;;;;;;;20.90;10.00;;;;;;;3.58;82.43;98969.73;103041;1316;107816;-81
2021/12/19 03:44:05;;;;;;;20.00;10.10;;;;;;;3.59;82.55;98959.36;103116;1316;95365;-81
2021/12/19 03:46:35;;;;;;;24.60;12.30;;;;;;;3.59;82.65;98950.05;103243;1314;96244;-81
2021/12/19 03:49:03;;;;;;;22.10;11.10;;;;;;;3.60;82.72;98947.21;103257;1316;111474;-82
2021/12/19 03:51:33;;;;;;;23.30;11.50;;;;;;;3.62;82.45;98942.39;103258;1316;97869;-81
2021/12/19 03:54:00;;;;;;;21.50;11.40;;;;;;;3.63;82.57;98941.81;103280;1313;107796;-81
2021/12/19 03:56:31;;;;;;;22.10;11.40;;;;;;;3.64;82.34;98931.05;103250;1320;97879;-82
2021/12/19 03:59:01;;;;;;;22.20;10.70;;;;;;;3.65;82.49;98928.93;103269;1315;98409;-81
2021/12/19 04:01:28;;;;;;;22.40;10.40;;;;;;;3.66;82.32;98922.91;103243;1313;112416;-79
2021/12/19 04:03:58;;;;;;;21.20;11.00;;;;;;;3.66;82.57;98922.39;103223;1320;97982;-80
2021/12/19 04:06:29;;;;;;;19.40;9.40;;;;;;;3.66;82.51;98921.86;103237;1314;108312;-83
2021/12/19 04:08:56;;;;;;;21.30;10.10;;;;;;;3.66;82.62;98925.20;103275;1314;98034;-82
2021/12/19 04:11:25;;;;;;;20.30;9.90;;;;;;;3.66;82.74;98920.80;103286;1317;96390;-81
2021/12/19 04:13:58;;;;;;;20.00;8.30;;;;;;;3.68;82.52;98916.52;103172;1316;111481;-80
2021/12/19 04:16:27;;;;;;;19.80;9.20;;;;;;;3.69;82.67;98915.74;103247;1314;97937;-80
2021/12/19 04:18:57;;;;;;;21.90;9.50;;;;;;;3.68;82.55;98909.44;103242;1319;107918;-81
2021/12/19 04:21:25;;;;;;;22.30;9.30;;;;;;;3.69;82.67;98902.26;103258;1314;96736;-81
2021/12/19 04:23:53;;;;;;;18.50;8.70;;;;;;;3.68;82.72;98890.34;103237;1316;97766;-81
2021/12/19 04:26:21;;;;;;;19.20;8.90;;;;;;;3.69;82.51;98879.96;103246;1314;111590;-81
2021/12/19 04:28:52;;;;;;;18.30;8.10;;;;;;;3.69;82.61;98874.16;103281;1320;98037;-83
2021/12/19 04:31:22;;;;;;;19.60;8.70;;;;;;;3.69;82.59;98864.85;103275;1314;108467;-84
2021/12/19 04:33:50;;;;;;;17.60;7.80;;;;;;;3.70;82.54;98865.73;103207;1316;97921;-83
2021/12/19 04:36:27;;;;;;;18.80;8.00;;;;;;;3.71;82.47;98854.24;103222;1316;97926;-82
2021/12/19 04:58:01;;;;;;;19.40;9.70;;;;;;;3.72;82.74;98819.66;103095;1316;107726;-79
2021/12/19 05:00:44;;;;;;;21.80;11.20;;;;;;;3.74;82.60;98819.92;103118;1320;97951;-80
2021/12/19 05:03:29;;;;;;;24.30;11.40;;;;;;;3.75;82.75;98813.05;103184;1319;95325;-84
2021/12/19 05:16:35;;;;;;;23.60;11.80;;;;;;;3.77;82.81;98821.91;103338;1316;97925;-81
2021/12/19 05:19:10;;;;;;;26.00;13.20;;;;;;;3.78;82.62;98812.71;103319;1313;111660;-80
2021/12/19 05:21:40;;;;;;;24.30;13.30;;;;;;;3.79;82.81;98804.96;103264;1314;97966;-78
2021/12/19 05:26:57;;;;;;;24.30;12.10;;;;;;;3.81;82.85;98804.33;103288;1314;97779;-79
2021/12/19 05:29:24;;;;;;;21.90;11.00;;;;;;;3.81;82.82;98808.36;103164;1316;95364;-78
2021/12/19 05:31:52;;;;;;;21.60;10.40;;;;;;;3.84;82.70;98806.48;103233;1319;111502;-77
2021/12/19 05:34:23;;;;;;;21.40;10.60;;;;;;;3.84;82.85;98799.09;103147;1316;97892;-81
2021/12/19 05:45:13;;;;;;;21.40;9.50;;;;;;;3.84;82.86;98765.62;103033;1320;111134;-81
2021/12/19 05:47:50;;;;;;;20.50;9.40;;;;;;;3.83;82.65;98758.44;103119;1316;97982;-81
2021/12/19 05:50:22;;;;;;;17.80;8.00;;;;;;;3.81;82.82;98758.36;103322;1314;107814;-80
2021/12/19 05:52:53;;;;;;;20.60;9.90;;;;;;;3.82;82.57;98753.24;103231;1316;97872;-82
2021/12/19 05:55:23;;;;;;;20.70;9.50;;;;;;;3.82;82.73;98750.95;103113;1317;98508;-80
2021/12/19 05:57:53;;;;;;;19.30;9.10;;;;;;;3.82;82.96;98744.10;103278;1316;111875;-81
2021/12/19 06:00:21;;;;;;;20.40;9.40;;;;;;;3.83;82.73;98743.89;103214;1316;97896;-82
2021/12/19 06:02:51;;;;;;;17.90;7.80;;;;;;;3.84;82.93;98750.17;103135;1316;107959;-83
2021/12/19 06:05:19;;;;;;;19.50;8.20;;;;;;;3.85;82.66;98752.41;103290;1316;97908;-81
2021/12/19 06:07:49;;;;;;;17.70;8.30;;;;;;;3.85;82.88;98749.91;103323;1313;98752;-82
2021/12/19 06:10:17;;;;;;;17.40;7.80;;;;;;;3.86;82.64;98749.66;103278;1318;111395;-82
2021/12/19 06:12:47;;;;;;;19.00;8.40;;;;;;;3.87;82.87;98744.35;103334;1313;97925;-83
2021/12/19 06:15:15;;;;;;;19.10;7.90;;;;;;;3.88;82.86;98741.17;103152;1319;107911;-83
2021/12/19 06:17:46;;;;;;;19.00;8.30;;;;;;;3.91;82.79;98741.05;103232;1316;97898;-82
2021/12/19 06:20:16;;;;;;;17.60;6.90;;;;;;;3.92;82.85;98744.69;103189;1317;97925;-83
2021/12/19 06:22:44;;;;;;;19.40;8.20;;;;;;;3.91;82.94;98749.96;103284;1317;111651;-83
2021/12/19 06:25:11;;;;;;;19.10;7.70;;;;;;;3.91;82.89;98749.79;103311;1314;97930;-82
2021/12/19 06:27:42;;;;;;;16.80;7.40;;;;;;;3.92;82.86;98742.76;103243;1314;106943;-79
2021/12/19 06:30:13;;;;;;;18.60;7.40;;;;;;;3.92;82.81;98734.86;103375;1316;99128;-79
2021/12/19 06:32:44;;;;;;;18.00;7.30;;;;;;;3.91;82.80;98733.82;103358;1316;97955;-80
2021/12/19 06:35:18;;;;;;;20.40;8.90;;;;;;;3.91;82.69;98731.20;103353;1313;111601;-81
2021/12/19 06:37:50;;;;;;;17.40;7.70;;;;;;;3.92;82.87;98725.36;103317;1316;95174;-82
2021/12/19 06:40:21;;;;;;;16.10;7.50;;;;;;;3.93;82.93;98731.30;103327;1320;107678;-79
2021/12/19 06:42:50;;;;;;;17.90;8.40;;;;;;;3.92;82.90;98732.38;103330;1314;97905;-80
2021/12/19 06:45:20;;;;;;;20.00;8.70;;;;;;;3.93;82.75;98732.67;103183;1316;98115;-82
2021/12/19 06:47:51;;;;;;;19.60;8.20;;;;;;;3.93;82.62;98740.41;103178;1315;109479;-83
2021/12/19 06:50:26;;;;;;;16.80;7.60;;;;;;;3.93;82.73;98730.22;103332;1315;96567;-82
2021/12/19 06:52:54;;;;;;;19.50;8.60;;;;;;;3.95;82.76;98711.55;103161;1316;107855;-81
2021/12/19 06:55:24;;;;;;;17.30;7.70;;;;;;;3.94;82.79;98700.86;103116;1316;98081;-82
2021/12/19 06:57:52;;;;;;;15.60;7.10;;;;;;;3.95;82.84;98696.63;103286;1320;98027;-79
2021/12/19 07:00:25;;;;;;;18.90;7.60;;;;;;;3.96;82.55;98687.96;103155;1317;111481;-81
2021/12/19 07:02:55;;;;;;;20.10;7.80;;;;;;;3.96;82.82;98677.27;103246;1315;97927;-83
2021/12/19 07:05:26;;;;;;;18.80;7.10;;;;;;;3.96;82.78;98680.08;103203;1314;107898;-82
2021/12/19 07:07:54;;;;;;;17.60;7.60;;;;;;;3.96;82.84;98683.59;103206;1316;97950;-83
2021/12/19 07:10:21;;;;;;;17.60;7.40;;;;;;;3.95;82.83;98670.32;103199;1316;97853;-82
2021/12/19 07:12:49;;;;;;;17.50;7.40;;;;;;;3.96;82.69;98666.42;103314;1317;109983;-83
2021/12/19 07:15:18;;;;;;;17.70;7.10;;;;;;;3.97;82.79;98668.80;103322;1315;97750;-80
2021/12/19 07:17:48;;;;;;;18.50;7.30;;;;;;;3.97;82.80;98664.22;103185;1316;107839;-82
2021/12/19 07:20:17;;;;;;;18.70;7.90;;;;;;;3.98;82.88;98660.14;103128;1316;98023;-82
2021/12/19 07:22:47;;;;;;;17.70;7.80;;;;;;;4.00;82.78;98658.27;103272;1316;97973;-82
2021/12/19 07:25:15;;;;;;;20.80;8.50;;;;;;;4.00;82.91;98657.59;103283;1316;112945;-81
2021/12/19 07:27:45;;;;;;;18.80;8.10;;;;;;;4.01;82.86;98658.59;103186;1315;98030;-79
2021/12/19 07:30:13;;;;;;;17.30;7.80;;;;;;;4.04;82.84;98664.27;103301;1316;108673;-82
2021/12/19 07:32:43;;;;;;;16.30;6.80;;;;;;;4.05;82.95;98661.20;103349;1316;97873;-77
2021/12/19 07:35:25;;;;;;;18.90;8.40;;;;;;;4.07;82.86;98665.86;103191;1316;96441;-83
2021/12/19 07:37:55;;;;;;;20.10;8.30;;;;;;;4.09;82.85;98664.69;103452;1315;111575;-82
2021/12/19 07:40:28;;;;;;;20.10;7.90;;;;;;;4.10;82.82;98663.36;103506;1316;96066;-79
2021/12/19 07:43:02;;;;;;;18.90;8.00;;;;;;;4.12;82.77;98662.08;103381;1321;108621;-81
2021/12/19 07:45:32;;;;;;;18.00;7.50;;;;;;;4.12;82.83;98663.27;103209;1316;97889;-81
2021/12/19 07:48:02;;;;;;;18.30;6.90;;;;;;;4.13;82.77;98663.23;103360;1320;97896;-76
2021/12/19 07:50:33;;;;;;;19.10;7.60;;;;;;;4.15;82.89;98657.88;103161;1320;111084;-77
2021/12/19 07:53:04;;;;;;;16.70;6.60;;;;;;;4.16;82.89;98655.20;103292;1319;97901;-79
2021/12/19 07:55:32;;;;;;;19.70;8.50;;;;;;;4.16;82.92;98648.34;103124;1316;107898;-79
2021/12/19 07:58:00;;;;;;;19.50;7.60;;;;;;;4.15;82.86;98648.54;103146;1316;97908;-79
2021/12/19 08:00:27;;;;;;;19.20;8.10;;;;;;;4.16;82.93;98645.20;103258;1318;98011;-80
2021/12/19 08:02:55;;;;;;;17.60;7.70;;;;;;;4.16;82.87;98650.63;103235;1316;111548;-76
2021/12/19 08:05:23;;;;;;;16.30;7.30;;;;;;;4.16;82.83;98639.20;103284;1317;97833;-78
2021/12/19 08:07:56;;;;;;;18.10;8.20;;;;;;;4.17;83.01;98638.12;103094;1316;106610;-77
2021/12/19 08:13:06;;;;;;;20.50;8.50;;;;;;;4.19;82.91;98621.52;103126;1316;96035;-80
2021/12/19 08:15:36;;;;;;;;;;;;;;;4.18;82.98;98621.89;103152;1316;111700;-78
2021/12/19 08:18:07;;;;;;;19.30;8.50;;;;;;;4.16;82.96;98619.88;103176;1320;98599;-77
2021/12/19 08:20:35;;;;;;;18.30;8.00;;;;;;;4.18;82.87;98625.25;103171;1316;107986;-78
2021/12/19 08:23:04;;;;;;;20.10;8.30;;;;;;;4.21;82.94;98625.95;103142;1316;97962;-76
2021/12/19 08:25:31;;;;;;;18.30;8.00;;;;;;;4.23;82.89;98618.48;103150;1315;97973;-81
2021/12/19 08:27:59;;;;;;;18.00;8.00;;;;;;;4.27;82.77;98617.80;103201;1314;111312;-77
2021/12/19 08:30:28;;;;;;;18.90;7.40;;;;;;;4.29;82.94;98613.61;103234;1320;97915;-79
2021/12/19 08:32:58;;;;;;;16.70;7.50;;;;;;;4.31;82.83;98613.45;103236;1314;107799;-78
2021/12/19 08:35:29;;;;;;;17.50;8.00;;;;;;;4.31;82.99;98612.27;103238;1318;97994;-79
2021/12/19 08:37:57;;;;;;;19.20;7.90;;;;;;;4.31;82.90;98613.12;103267;1314;97985;-76
2021/12/19 08:40:27;;;;;;;19.10;7.70;;;;;;;4.32;82.81;98606.23;103126;1316;112080;-78
2021/12/19 08:42:57;;;;;;;18.10;8.50;;;;;;;4.33;83.00;98612.67;103081;1316;97885;-78
2021/12/19 08:45:27;;;;;;;17.90;7.90;;;;;;;4.32;82.82;98607.45;103274;1319;107730;-79
2021/12/19 08:47:56;;;;;;;18.70;7.70;;;;;;;4.32;83.00;98605.36;103177;1317;97863;-80
2021/12/19 08:50:25;;;;;;;19.30;8.90;;;;;;;4.33;82.82;98608.45;103142;1316;98021;-79
2021/12/19 08:52:53;;;;;;;19.10;8.50;;;;;;;4.32;82.95;98602.69;103135;1315;111276;-76
2021/12/19 08:55:23;;;;;;;21.20;9.50;;;;;;;4.31;82.84;98604.34;103099;1316;98046;-77
2021/12/19 08:57:51;;;;;;;21.80;9.30;;;;;;;4.32;82.81;98597.98;102994;1315;107868;-77
2021/12/19 09:00:21;;;;;;;20.90;9.40;;;;;;;4.32;82.91;98596.40;103010;1315;97882;-78
2021/12/19 09:02:55;;;;;;;18.80;8.50;;;;;;;4.31;82.82;98593.29;103140;1316;97877;-77
2021/12/19 09:05:28;;;;;;;21.20;10.20;;;;;;;4.30;82.92;98590.34;103079;1316;111574;-79
2021/12/19 09:07:58;;;;;;;22.30;10.60;;;;;;;4.30;82.99;98590.73;103122;1319;97210;-80
2021/12/19 09:10:27;;;;;;;22.20;10.60;;;;;;;4.31;82.91;98586.47;103114;1321;107863;-77
2021/12/19 09:13:00;;;;;;;20.80;10.60;;;;;;;4.31;82.90;98582.56;103194;1312;97967;-82
2021/12/19 09:15:35;;;;;;;22.90;10.10;;;;;;;4.32;82.88;98583.06;103098;1315;97956;-77
2021/12/19 09:18:03;;;;;;;22.10;11.10;;;;;;;4.32;82.97;98582.52;103236;1314;112448;-76
2021/12/19 09:20:31;;;;;;;21.60;10.40;;;;;;;4.34;82.85;98583.52;103253;1316;95196;-77
2021/12/19 09:22:59;;;;;;;24.50;11.30;;;;;;;4.34;82.92;98580.52;103311;1315;107964;-77
2021/12/19 09:25:27;;;;;;;21.90;11.00;;;;;;;4.34;82.85;98577.88;103243;1316;97849;-77
2021/12/19 09:27:55;;;;;;;23.70;11.60;;;;;;;4.35;82.79;98573.07;103213;1316;97876;-76
2021/12/19 09:30:25;;;;;;;22.70;11.40;;;;;;;4.35;82.75;98560.79;103281;1316;110227;-76
2021/12/19 09:32:53;;;;;;;22.30;10.40;;;;;;;4.37;82.81;98564.17;103127;1314;96186;-77
2021/12/19 09:35:22;;;;;;;24.60;11.60;;;;;;;4.39;82.88;98554.08;102914;1316;107549;-78
2021/12/19 09:37:50;;;;;;;22.90;10.70;;;;;;;4.41;82.85;98552.73;103060;1315;98044;-79
2021/12/19 09:40:22;;;;;;;22.10;10.10;;;;;;;4.43;82.81;98550.36;103118;1316;96302;-77
2021/12/19 09:43:00;;;;;;;23.20;10.80;;;;;;;4.45;82.89;98544.64;103109;1314;111603;-77
2021/12/19 09:45:30;;;;;;;21.10;9.30;;;;;;;4.48;82.87;98547.77;103151;1316;97950;-78
2021/12/19 09:47:58;;;;;;;21.10;10.00;;;;;;;4.52;82.89;98544.77;103105;1316;107852;-76
2021/12/19 09:50:28;;;;;;;25.90;10.20;;;;;;;4.53;82.85;98545.73;102986;1316;97908;-77
2021/12/19 09:52:57;;;;;;;22.90;9.90;;;;;;;4.56;83.01;98539.45;102961;1315;97878;-75
2021/12/19 09:55:29;;;;;;;24.00;9.00;;;;;;;4.57;82.92;98537.45;103141;1315;111322;-76
2021/12/19 09:57:59;;;;;;;20.60;9.20;;;;;;;4.60;82.85;98534.46;103182;1317;97963;-76
2021/12/19 10:00:28;;;;;;;21.20;9.70;;;;;;;4.61;82.89;98530.04;103201;1316;107848;-75
2021/12/19 10:02:58;;;;;;;21.80;9.40;;;;;;;4.62;82.83;98524.52;103023;1317;97894;-76
2021/12/19 10:05:28;;;;;;;22.40;9.50;;;;;;;4.63;82.75;98518.52;103363;1316;96354;-75
2021/12/19 22:16:43;;;;;;;18.40;6.30;;;;;;;0.42;79.77;98281.31;103018;1316;95936;-71
2021/12/19 22:19:13;;;;;;;20.80;7.00;;;;;;;0.44;79.74;98281.61;102809;1317;111457;-72
2021/12/19 22:21:41;;;;;;;20.10;6.70;;;;;;;0.46;79.92;98281.20;102842;1318;97880;-73
2021/12/19 22:24:09;;;;;;;23.60;7.30;;;;;;;0.48;79.67;98287.75;102869;1316;105652;-73
2021/12/19 22:26:38;;;;;;;18.70;5.70;;;;;;;0.48;79.65;98283.17;102777;1316;97878;-72
2021/12/19 22:29:06;;;;;;;15.00;5.40;;;;;;;0.48;79.73;98279.54;102917;1316;97982;-73
2021/12/19 22:31:34;;;;;;;16.90;5.40;;;;;;;0.48;79.82;98281.08;102899;1318;111618;-72
2021/12/19 22:34:02;;;;;;;13.40;4.80;;;;;;;0.48;79.70;98283.35;102943;1316;95541;-71
2021/12/19 22:36:30;;;;;;;18.00;6.10;;;;;;;0.49;79.76;98282.96;102776;1318;107817;-72
2021/12/19 22:38:58;;;;;;;19.30;6.50;;;;;;;0.47;79.69;98291.06;102866;1315;97927;-72
2021/12/19 22:41:27;;;;;;;17.00;5.60;;;;;;;0.47;79.70;98291.07;102955;1316;95887;-72
2021/12/19 22:43:55;;;;;;;23.70;6.10;;;;;;;0.48;79.82;98292.77;102995;1315;111533;-72
2021/12/19 22:46:24;;;;;;;21.00;6.20;;;;;;;0.47;79.54;98296.99;102887;1318;97879;-72
2021/12/19 22:48:52;;;;;;;37.30;15.20;;;;;;;0.46;79.64;98294.42;102790;1318;107798;-72
2021/12/19 22:51:20;;;;;;;20.10;5.50;;;;;;;0.45;79.77;98291.49;102895;1315;98027;-71
2021/12/19 22:53:48;;;;;;;18.10;5.20;;;;;;;0.43;79.74;98296.46;102948;1316;97845;-72
2021/12/19 22:56:16;;;;;;;15.80;5.10;;;;;;;0.42;79.61;98296.55;102952;1320;111337;-73
2021/12/19 22:58:44;;;;;;;16.30;4.80;;;;;;;0.41;79.85;98299.89;102825;1318;97966;-73
2021/12/19 23:01:12;;;;;;;19.20;5.20;;;;;;;0.41;79.66;98305.28;102959;1319;107933;-72
2021/12/19 23:03:41;;;;;;;17.00;5.10;;;;;;;0.41;79.65;98306.33;102961;1320;97969;-72
2021/12/19 23:06:11;;;;;;;17.60;4.80;;;;;;;0.41;79.66;98309.14;102934;1322;97910;-71
2021/12/19 23:08:41;;;;;;;16.80;5.40;;;;;;;0.41;79.77;98310.66;102844;1319;111526;-72
2021/12/19 23:11:18;;;;;;;17.10;6.50;;;;;;;0.42;79.72;98309.77;102929;1318;99008;-73
2021/12/19 23:13:53;;;;;;;18.80;6.10;;;;;;;0.43;79.65;98306.61;102832;1318;108464;-71
2021/12/19 23:16:25;;;;;;;17.60;5.70;;;;;;;0.44;79.74;98309.14;102797;1316;97977;-71
2021/12/19 23:18:56;;;;;;;18.30;6.20;;;;;;;0.44;79.75;98310.73;102822;1319;97911;-71
2021/12/19 23:21:26;;;;;;;17.30;5.60;;;;;;;0.44;79.73;98322.05;102790;1316;111602;-71
2021/12/19 23:23:54;;;;;;;20.60;6.40;;;;;;;0.45;79.79;98318.36;102750;1318;98028;-73
2021/12/19 23:26:22;;;;;;;18.20;5.50;;;;;;;0.47;79.74;98315.17;102811;1318;106866;-72
2021/12/19 23:28:51;;;;;;;18.50;5.20;;;;;;;0.46;79.70;98314.33;102844;1316;97920;-73
2021/12/19 23:31:19;;;;;;;19.00;6.60;;;;;;;0.44;79.75;98318.92;102927;1316;96631;-73
2021/12/19 23:36:53;;;;;;;15.40;4.70;;;;;;;0.43;79.67;98318.62;102957;1315;96152;-72
2021/12/19 23:47:42;;;;;;;15.50;4.70;;;;;;;0.42;79.71;98324.43;102590;1322;111606;-72
2021/12/19 23:50:10;;;;;;;16.60;4.90;;;;;;;0.42;79.63;98324.95;102766;1318;97749;-72
2021/12/19 23:52:40;;;;;;;14.90;5.10;;;;;;;0.41;79.73;98325.71;102852;1318;107856;-73
2021/12/19 23:55:11;;;;;;;16.60;4.90;;;;;;;0.40;79.68;98325.90;102751;1318;96446;-71
2021/12/19 23:57:42;;;;;;;14.20;4.50;;;;;;;0.40;79.72;98329.42;102853;1316;98437;-72
